Time;durP1;ratioP1;P1;durP2;ratioP2;P2;SDS_P1;SDS_P2;PMS_P1;PMS_P2;Temp;Humidity;BMP_temperature;BMP_pressure;BME280_temperature;BME280_humidity;BME280_pressure;Samples;Min_cycle;Max_cycle;Signal;HPM_P1;HPM_P2
2022/04/13 00:02:01;;;;;;;10.73;6.47;;;14.10;99.90;;;;;;5069113;28;20056;-74
2022/04/13 00:04:26;;;;;;;8.90;6.28;;;14.10;99.90;;;;;;5047318;28;20051;-73
2022/04/13 00:06:52;;;;;;;15.18;6.40;;;14.00;99.90;;;;;;5062353;28;20036;-74
2022/04/13 00:09:18;;;;;;;10.65;7.05;;;14.00;99.90;;;;;;5043476;28;20040;-74
2022/04/13 00:11:44;;;;;;;11.70;6.57;;;14.00;99.90;;;;;;5048097;28;20403;-74
2022/04/13 00:14:10;;;;;;;9.13;6.30;;;13.90;99.90;;;;;;5048196;28;20381;-73
2022/04/13 00:16:36;;;;;;;9.60;6.32;;;13.90;99.90;;;;;;5053914;28;20063;-74
2022/04/13 00:19:02;;;;;;;10.23;6.53;;;13.90;99.90;;;;;;5031695;28;20415;-74
2022/04/13 00:21:27;;;;;;;10.43;6.78;;;13.90;99.90;;;;;;5057211;28;20052;-75
2022/04/13 00:23:53;;;;;;;12.82;6.97;;;13.80;99.90;;;;;;5042541;28;20040;-75
2022/04/13 00:26:18;;;;;;;11.70;6.32;;;13.80;99.90;;;;;;5061557;28;20123;-74
2022/04/13 00:28:44;;;;;;;10.23;6.97;;;13.80;99.90;;;;;;5045252;28;20164;-74
2022/04/13 00:31:10;;;;;;;11.93;6.80;;;13.80;99.90;;;;;;5066745;28;20538;-75
2022/04/13 00:33:36;;;;;;;12.68;6.30;;;13.80;99.90;;;;;;5042344;28;20155;-74
2022/04/13 00:36:01;;;;;;;10.65;6.63;;;13.70;99.90;;;;;;5044296;28;20093;-74
2022/04/13 00:38:27;;;;;;;12.85;6.35;;;13.70;99.90;;;;;;5063272;28;20044;-74
2022/04/13 00:40:52;;;;;;;9.50;6.50;;;13.70;99.90;;;;;;5031567;28;20488;-74
2022/04/13 00:43:18;;;;;;;9.10;6.68;;;13.60;99.90;;;;;;5061764;28;20112;-74
2022/04/13 00:45:47;;;;;;;13.93;6.72;;;13.80;99.90;;;;;;5072590;28;20043;-74
2022/04/13 00:48:34;;;;;;;11.25;7.25;;;13.60;99.90;;;;;;5037663;28;20040;-74
2022/04/13 00:50:59;;;;;;;8.55;6.10;;;13.60;99.90;;;;;;5036839;28;20106;-75
2022/04/13 00:53:25;;;;;;;11.63;6.53;;;13.50;99.90;;;;;;5045782;28;20041;-74
2022/04/13 00:55:55;;;;;;;12.05;7.30;;;13.50;99.90;;;;;;5045845;28;20095;-74
2022/04/13 00:58:23;;;;;;;13.77;7.15;;;13.50;99.90;;;;;;5043008;28;20092;-74
2022/04/13 01:00:51;;;;;;;14.18;7.13;;;13.40;99.90;;;;;;5017467;28;20079;-74
2022/04/13 01:03:23;;;;;;;9.07;6.53;;;13.40;99.90;;;;;;5013608;28;20053;-75
2022/04/13 01:05:49;;;;;;;8.65;6.20;;;13.40;99.90;;;;;;5024341;28;20128;-74
2022/04/13 01:08:17;;;;;;;8.73;6.25;;;13.40;99.90;;;;;;5028971;28;20091;-75
2022/04/13 01:10:44;;;;;;;13.35;6.45;;;13.40;99.90;;;;;;5016671;28;20132;-74
2022/04/13 01:13:11;;;;;;;9.25;6.65;;;13.40;99.90;;;;;;5014542;28;20446;-74
2022/04/13 01:15:37;;;;;;;12.48;7.20;;;13.30;99.90;;;;;;5028869;28;20361;-74
2022/04/13 01:18:03;;;;;;;11.00;6.43;;;13.30;99.90;;;;;;5017294;28;20041;-74
2022/04/13 01:20:29;;;;;;;12.18;6.60;;;13.30;99.90;;;;;;5045248;28;20053;-74
2022/04/13 01:22:54;;;;;;;9.23;6.43;;;13.30;99.90;;;;;;5042594;28;20120;-74
2022/04/13 01:25:20;;;;;;;11.07;6.53;;;13.20;99.90;;;;;;5031930;28;20052;-74
2022/04/13 01:27:46;;;;;;;8.65;6.38;;;13.20;99.90;;;;;;5019369;28;20076;-75
2022/04/13 01:30:15;;;;;;;14.05;7.00;;;13.20;99.90;;;;;;5026795;28;20502;-74
2022/04/13 01:32:41;;;;;;;10.15;6.32;;;13.20;99.90;;;;;;5041567;28;20033;-75
2022/04/13 01:35:07;;;;;;;13.43;7.68;;;13.10;99.90;;;;;;5010489;28;20577;-74
2022/04/13 01:37:34;;;;;;;11.00;6.82;;;13.10;99.90;;;;;;5017266;28;20387;-75
2022/04/13 01:40:00;;;;;;;11.75;7.95;;;13.10;99.90;;;;;;5021407;28;20049;-75
2022/04/13 01:42:25;;;;;;;10.63;7.22;;;13.10;99.90;;;;;;5026228;28;20099;-74
2022/04/13 01:44:51;;;;;;;13.45;7.28;;;13.10;99.90;;;;;;5039123;28;20044;-75
2022/04/13 01:47:16;;;;;;;14.27;7.97;;;13.10;99.90;;;;;;5030147;28;20049;-74
2022/04/13 01:49:45;;;;;;;9.98;7.15;;;13.10;99.90;;;;;;5016985;28;20080;-74
2022/04/13 01:52:13;;;;;;;15.20;7.18;;;13.10;99.90;;;;;;5028027;28;20041;-74
2022/04/13 01:54:39;;;;;;;11.07;7.40;;;13.00;99.90;;;;;;5030394;28;20433;-75
2022/04/13 01:57:04;;;;;;;10.52;7.05;;;13.00;99.90;;;;;;5034184;28;20053;-75
2022/04/13 01:59:30;;;;;;;13.77;7.80;;;13.00;99.90;;;;;;5037307;28;20044;-75
2022/04/13 02:01:56;;;;;;;13.50;6.97;;;13.00;99.90;;;;;;5046267;28;20131;-75
2022/04/13 02:04:26;;;;;;;9.75;7.25;;;13.00;99.90;;;;;;5049885;28;20446;-74
2022/04/13 02:06:53;;;;;;;14.77;7.97;;;13.00;99.90;;;;;;5041428;28;20045;-74
2022/04/13 02:09:19;;;;;;;11.57;7.50;;;13.00;99.90;;;;;;5052416;28;20053;-74
2022/04/13 02:11:48;;;;;;;14.30;7.88;;;13.00;99.90;;;;;;5042638;28;20045;-75
2022/04/13 02:14:14;;;;;;;11.60;7.35;;;13.00;99.90;;;;;;5048458;28;20382;-74
2022/04/13 02:16:39;;;;;;;14.55;6.90;;;13.00;99.90;;;;;;5048701;28;20056;-74
2022/04/13 02:19:07;;;;;;;15.50;7.85;;;13.00;99.90;;;;;;5047461;28;20041;-74
2022/04/13 02:21:33;;;;;;;16.00;7.40;;;13.00;99.90;;;;;;5042254;28;20110;-75
2022/04/13 02:23:59;;;;;;;14.70;8.73;;;12.90;99.90;;;;;;5039194;28;20056;-75
2022/04/13 02:26:25;;;;;;;18.13;9.90;;;12.90;99.90;;;;;;5044278;28;20049;-74
2022/04/13 02:28:53;;;;;;;13.50;8.57;;;13.00;99.90;;;;;;5046303;28;20621;-74
2022/04/13 02:31:18;;;;;;;15.13;9.50;;;13.10;99.90;;;;;;5039301;28;20041;-73
2022/04/13 02:33:44;;;;;;;15.70;8.00;;;13.00;99.90;;;;;;5040839;28;20064;-73
2022/04/13 02:36:10;;;;;;;15.40;8.15;;;13.00;99.90;;;;;;5043334;28;20045;-73
2022/04/13 02:38:35;;;;;;;15.23;9.73;;;13.00;99.90;;;;;;5036626;28;20044;-73
2022/04/13 02:41:02;;;;;;;13.30;8.23;;;13.00;99.90;;;;;;5046001;28;20074;-73
2022/04/13 02:43:28;;;;;;;15.80;9.82;;;13.00;99.90;;;;;;5032549;28;20045;-73
2022/04/13 02:45:54;;;;;;;15.35;9.43;;;13.00;99.90;;;;;;5044497;28;20823;-73
2022/04/13 02:48:20;;;;;;;18.45;9.95;;;13.00;99.90;;;;;;5043083;28;20060;-73
2022/04/13 02:50:46;;;;;;;19.08;10.30;;;13.10;99.90;;;;;;5042418;28;20155;-73
2022/04/13 02:53:12;;;;;;;19.73;10.60;;;13.10;99.90;;;;;;5030737;28;20144;-73
2022/04/13 02:55:37;;;;;;;15.00;10.10;;;13.20;99.90;;;;;;5036183;28;20090;-73
2022/04/13 02:58:12;;;;;;;19.02;10.48;;;13.10;99.90;;;;;;5060283;28;20468;-74
2022/04/13 03:00:38;;;;;;;16.77;10.35;;;13.10;99.90;;;;;;5073801;28;20044;-74
2022/04/13 03:03:03;;;;;;;18.13;11.05;;;13.10;99.90;;;;;;5052510;28;20131;-74
2022/04/13 03:05:30;;;;;;;21.92;11.02;;;13.10;99.90;;;;;;5041631;28;20063;-74
2022/04/13 03:07:55;;;;;;;21.88;10.60;;;13.10;99.90;;;;;;5049798;28;20048;-74
2022/04/13 03:10:21;;;;;;;23.92;10.80;;;13.20;99.90;;;;;;5048665;28;20118;-74
2022/04/13 03:12:47;;;;;;;18.27;10.30;;;13.20;99.90;;;;;;5061594;28;20037;-74
2022/04/13 03:15:14;;;;;;;16.80;10.45;;;13.20;99.90;;;;;;5062038;28;20062;-74
2022/04/13 03:17:39;;;;;;;21.00;10.55;;;13.20;99.90;;;;;;5066409;28;20078;-74
2022/04/13 03:20:06;;;;;;;19.02;10.23;;;13.20;99.90;;;;;;5053254;28;20117;-74
2022/04/13 03:22:34;;;;;;;19.85;10.60;;;13.30;99.90;;;;;;5064104;28;20407;-74
2022/04/13 03:25:00;;;;;;;21.98;11.45;;;13.30;99.90;;;;;;5067394;28;20078;-75
2022/04/13 03:27:26;;;;;;;19.38;11.25;;;13.30;99.90;;;;;;5043088;28;20040;-74
2022/04/13 03:29:52;;;;;;;24.83;11.38;;;13.30;99.90;;;;;;5044974;28;20121;-74
2022/04/13 03:32:18;;;;;;;24.33;11.35;;;13.30;99.90;;;;;;5057786;28;20080;-74
2022/04/13 03:34:43;;;;;;;21.35;10.15;;;13.30;99.90;;;;;;5063543;28;20044;-74
2022/04/13 03:37:09;;;;;;;23.25;10.15;;;13.30;99.90;;;;;;5063752;28;20041;-74
2022/04/13 03:39:34;;;;;;;22.02;10.43;;;13.30;99.90;;;;;;5045057;28;20032;-74
2022/04/13 03:42:00;;;;;;;22.98;10.23;;;13.30;99.90;;;;;;5063855;28;20098;-74
2022/04/13 03:44:26;;;;;;;17.20;10.13;;;13.40;99.90;;;;;;5034913;28;20420;-74
2022/04/13 03:46:51;;;;;;;15.48;10.55;;;13.30;99.90;;;;;;5073989;28;20051;-74
2022/04/13 03:49:20;;;;;;;19.48;10.40;;;13.30;99.90;;;;;;5035254;28;20048;-74
2022/04/13 03:51:46;;;;;;;19.23;9.40;;;13.30;99.90;;;;;;5036624;28;20091;-74
2022/04/13 03:54:11;;;;;;;22.10;10.75;;;13.30;99.90;;;;;;5048218;28;20044;-74
2022/04/13 03:56:37;;;;;;;20.65;9.90;;;13.30;99.90;;;;;;5055128;28;20041;-74
2022/04/13 03:59:09;;;;;;;17.05;10.18;;;13.30;99.90;;;;;;5061618;28;20037;-74
2022/04/13 04:01:35;;;;;;;19.73;10.38;;;13.30;99.90;;;;;;5060324;28;20044;-74
2022/04/13 04:04:01;;;;;;;22.55;10.43;;;13.30;99.90;;;;;;5045767;28;20037;-74
2022/04/13 04:06:27;;;;;;;22.92;10.07;;;13.20;99.90;;;;;;5043071;28;20049;-74
2022/04/13 04:08:52;;;;;;;17.38;10.23;;;13.20;99.90;;;;;;5037776;28;20059;-75
2022/04/13 04:11:18;;;;;;;17.58;10.23;;;13.20;99.90;;;;;;5064251;28;20068;-74
2022/04/13 04:13:44;;;;;;;20.88;10.65;;;13.40;99.90;;;;;;5051418;28;20041;-74
2022/04/13 04:16:10;;;;;;;17.70;10.38;;;13.20;99.90;;;;;;5058122;28;20444;-74
2022/04/13 04:18:35;;;;;;;16.60;10.13;;;13.10;99.90;;;;;;5061753;28;20056;-74
2022/04/13 04:21:04;;;;;;;20.05;10.30;;;13.10;99.90;;;;;;5054382;28;20046;-74
2022/04/13 04:23:29;;;;;;;18.45;11.05;;;13.10;99.90;;;;;;5053371;28;20507;-75
2022/04/13 04:25:55;;;;;;;17.02;10.43;;;13.20;99.90;;;;;;5045109;28;20056;-75
2022/04/13 04:28:21;;;;;;;19.48;10.55;;;13.10;99.90;;;;;;5078891;28;20679;-75
2022/04/13 04:30:46;;;;;;;21.83;11.20;;;13.00;99.90;;;;;;5052585;28;20064;-75
2022/04/13 04:33:12;;;;;;;25.05;11.65;;;13.00;99.90;;;;;;5067456;28;20121;-75
2022/04/13 04:35:39;;;;;;;20.40;10.65;;;13.00;99.90;;;;;;5055840;28;20098;-75
2022/04/13 04:38:05;;;;;;;17.05;10.15;;;13.00;99.90;;;;;;5050114;28;20048;-75
2022/04/13 04:40:30;;;;;;;19.42;11.13;;;13.00;99.90;;;;;;5052301;28;20040;-75
2022/04/13 04:42:58;;;;;;;22.75;11.45;;;13.00;99.90;;;;;;5058666;28;20052;-75
2022/04/13 04:45:24;;;;;;;21.65;11.43;;;13.00;99.90;;;;;;5064847;28;20037;-75
2022/04/13 04:47:50;;;;;;;19.38;11.27;;;12.90;99.90;;;;;;5042497;28;20052;-75
2022/04/13 04:50:17;;;;;;;19.77;11.55;;;12.90;99.90;;;;;;5035507;28;20048;-75
2022/04/13 04:52:44;;;;;;;21.77;11.63;;;12.90;99.90;;;;;;5063253;28;20074;-74
2022/04/13 04:55:11;;;;;;;25.85;12.80;;;12.90;99.90;;;;;;5038175;28;20077;-74
2022/04/13 04:57:37;;;;;;;21.65;12.60;;;12.80;99.90;;;;;;5055502;28;20500;-74
2022/04/13 05:00:06;;;;;;;21.63;11.38;;;12.80;99.90;;;;;;5044109;28;20044;-74
2022/04/13 05:02:32;;;;;;;21.80;13.00;;;12.80;99.90;;;;;;5041355;28;20037;-74
2022/04/13 05:04:57;;;;;;;22.13;13.05;;;12.80;99.90;;;;;;5054571;28;20029;-75
2022/04/13 05:07:23;;;;;;;24.67;12.30;;;12.70;99.90;;;;;;5054203;28;20119;-76
2022/04/13 05:09:49;;;;;;;22.52;12.63;;;12.80;99.90;;;;;;5081177;28;20060;-74
2022/04/13 05:12:14;;;;;;;24.15;12.75;;;12.80;99.90;;;;;;5059870;28;20550;-75
2022/04/13 05:14:40;;;;;;;19.95;12.23;;;12.70;99.90;;;;;;5060373;28;20099;-74
2022/04/13 05:17:06;;;;;;;18.27;12.35;;;12.80;99.90;;;;;;5050924;28;20045;-75
2022/04/13 05:19:33;;;;;;;20.23;12.27;;;12.80;99.90;;;;;;5031630;28;20041;-75
2022/04/13 05:22:02;;;;;;;23.55;12.65;;;12.80;99.90;;;;;;5051234;28;20095;-75
2022/04/13 05:24:28;;;;;;;22.40;13.38;;;12.90;99.90;;;;;;5048904;28;20148;-75
2022/04/13 05:26:54;;;;;;;19.10;11.82;;;12.90;99.90;;;;;;5036711;28;20103;-75
2022/04/13 05:29:21;;;;;;;22.75;13.40;;;12.90;99.90;;;;;;5063022;28;20036;-74
2022/04/13 05:31:47;;;;;;;22.77;12.95;;;12.90;99.90;;;;;;5076777;28;20037;-75
2022/04/13 05:34:13;;;;;;;22.48;13.10;;;12.90;99.90;;;;;;5079152;28;20391;-75
2022/04/13 05:36:38;;;;;;;16.63;11.55;;;13.00;99.90;;;;;;5064040;28;20045;-76
2022/04/13 05:39:04;;;;;;;21.95;13.50;;;12.90;99.90;;;;;;5066351;28;20127;-75
2022/04/13 05:41:30;;;;;;;25.30;12.05;;;13.00;99.90;;;;;;5055831;28;20033;-75
2022/04/13 05:43:55;;;;;;;24.92;13.15;;;13.00;99.90;;;;;;5061690;28;20118;-75
2022/04/13 05:46:21;;;;;;;25.15;13.43;;;13.00;99.90;;;;;;5057954;28;20048;-75
2022/04/13 05:48:47;;;;;;;21.90;12.60;;;13.00;99.90;;;;;;5047611;28;20060;-76
2022/04/13 05:51:13;;;;;;;22.85;12.40;;;13.00;99.90;;;;;;5035176;28;20064;-75
2022/04/13 05:53:38;;;;;;;20.35;12.30;;;13.00;99.90;;;;;;5040265;28;20036;-74
2022/04/13 05:56:05;;;;;;;20.88;11.65;;;13.10;99.90;;;;;;5040828;28;20129;-75
2022/04/13 05:58:31;;;;;;;20.20;11.18;;;13.10;99.90;;;;;;5070641;28;20803;-74
2022/04/13 06:00:57;;;;;;;26.13;12.70;;;13.10;99.90;;;;;;5060405;28;20477;-73
2022/04/13 06:03:23;;;;;;;20.63;13.10;;;13.10;99.90;;;;;;5043628;28;20115;-74
2022/04/13 06:05:50;;;;;;;23.52;12.55;;;13.20;99.90;;;;;;5061891;28;20176;-75
2022/04/13 06:08:15;;;;;;;20.88;12.95;;;13.20;99.90;;;;;;5033636;28;20049;-74
2022/04/13 06:10:41;;;;;;;24.63;13.20;;;13.20;99.90;;;;;;5032482;28;20052;-74
2022/04/13 06:13:07;;;;;;;26.33;13.65;;;13.30;99.90;;;;;;5046829;28;20485;-75
2022/04/13 06:15:32;;;;;;;26.63;13.52;;;13.30;99.90;;;;;;5067374;28;20053;-74
2022/04/13 06:17:58;;;;;;;32.65;13.63;;;13.40;99.90;;;;;;5053183;28;20041;-74
2022/04/13 06:20:27;;;;;;;23.80;14.23;;;13.40;99.90;;;;;;5047289;28;20037;-73
2022/04/13 06:22:53;;;;;;;23.05;13.57;;;13.50;99.90;;;;;;5042594;28;20075;-74
2022/04/13 06:25:19;;;;;;;29.10;13.57;;;13.60;99.90;;;;;;5036025;28;20845;-73
2022/04/13 06:27:45;;;;;;;26.52;13.82;;;13.60;99.90;;;;;;5036198;28;20109;-73
2022/04/13 06:30:12;;;;;;;19.08;12.93;;;13.60;99.90;;;;;;5051307;28;20079;-73
2022/04/13 06:32:42;;;;;;;27.15;13.18;;;13.70;99.90;;;;;;5043762;28;20044;-73
2022/04/13 06:35:14;;;;;;;25.65;12.40;;;13.80;99.90;;;;;;5058297;28;20432;-73
2022/04/13 06:37:40;;;;;;;24.20;12.00;;;13.80;99.90;;;;;;5051500;28;20048;-72
2022/04/13 06:40:07;;;;;;;21.80;12.55;;;13.90;99.90;;;;;;5064686;28;20055;-74
2022/04/13 06:42:33;;;;;;;26.40;14.07;;;13.80;99.90;;;;;;5041110;28;20048;-73
2022/04/13 06:45:03;;;;;;;24.10;11.98;;;13.90;99.90;;;;;;5049202;28;20040;-73
2022/04/13 06:47:29;;;;;;;26.33;12.57;;;13.90;99.90;;;;;;5059165;28;20032;-73
2022/04/13 06:49:55;;;;;;;24.73;12.73;;;13.90;99.90;;;;;;5037206;28;20044;-73
2022/04/13 06:52:21;;;;;;;28.45;13.23;;;13.90;99.90;;;;;;5043708;28;20583;-73
2022/04/13 06:54:47;;;;;;;22.67;13.93;;;14.00;99.90;;;;;;5042799;28;20054;-73
2022/04/13 06:57:12;;;;;;;25.08;13.13;;;14.00;99.90;;;;;;5044761;28;20055;-73
2022/04/13 06:59:38;;;;;;;26.10;12.70;;;14.00;99.90;;;;;;5048387;28;20059;-73
2022/04/13 07:02:10;;;;;;;20.30;12.68;;;14.20;99.90;;;;;;5048881;28;20041;-73
2022/04/13 07:04:36;;;;;;;22.67;12.60;;;14.10;99.90;;;;;;5040069;28;20873;-73
2022/04/13 07:07:02;;;;;;;19.17;11.00;;;14.20;99.90;;;;;;5071742;28;20047;-73
2022/04/13 07:09:29;;;;;;;22.77;11.98;;;14.30;99.90;;;;;;5055199;28;20045;-76
2022/04/13 07:11:54;;;;;;;19.90;11.65;;;14.40;99.90;;;;;;5057644;28;20055;-74
2022/04/13 07:14:20;;;;;;;51.63;36.00;;;14.50;99.90;;;;;;5044758;28;20049;-74
2022/04/13 07:16:46;;;;;;;22.58;12.77;;;14.40;99.90;;;;;;5041876;28;20051;-74
2022/04/13 07:19:11;;;;;;;22.70;11.38;;;14.60;99.90;;;;;;5067741;28;20063;-74
2022/04/13 07:21:37;;;;;;;21.58;12.10;;;14.60;99.90;;;;;;5043852;28;20040;-73
2022/04/13 07:24:03;;;;;;;19.85;12.48;;;14.60;99.90;;;;;;5052630;28;20033;-74
2022/04/13 07:26:29;;;;;;;21.58;12.52;;;14.60;99.90;;;;;;5045722;28;20048;-74
2022/04/13 07:28:54;;;;;;;20.77;11.50;;;14.70;99.90;;;;;;5070631;28;20033;-75
2022/04/13 07:31:20;;;;;;;20.63;12.35;;;14.70;99.90;;;;;;5068087;28;20048;-74
2022/04/13 07:33:46;;;;;;;23.48;11.52;;;14.70;99.90;;;;;;5041486;28;20452;-73
2022/04/13 07:36:14;;;;;;;22.00;12.70;;;14.80;99.90;;;;;;5052331;28;20043;-73
2022/04/13 07:38:42;;;;;;;21.33;11.18;;;14.80;99.90;;;;;;5058298;28;20152;-74
2022/04/13 07:41:08;;;;;;;22.15;12.73;;;14.80;99.90;;;;;;5054706;28;20450;-74
2022/04/13 07:43:34;;;;;;;19.00;11.85;;;14.90;99.90;;;;;;5064497;28;20054;-74
2022/04/13 07:46:00;;;;;;;20.90;11.77;;;15.00;99.90;;;;;;5035604;28;20051;-72
2022/04/13 07:48:26;;;;;;;21.10;11.90;;;15.10;99.90;;;;;;5039867;28;20047;-72
2022/04/13 07:50:51;;;;;;;21.10;10.82;;;15.10;99.90;;;;;;5033823;28;20040;-72
2022/04/13 07:53:17;;;;;;;25.42;10.93;;;15.10;99.90;;;;;;5051936;28;20546;-72
2022/04/13 07:55:42;;;;;;;19.95;11.93;;;15.20;99.90;;;;;;5056587;28;20052;-72
2022/04/13 07:58:08;;;;;;;23.30;11.95;;;15.20;99.90;;;;;;5052841;28;20049;-73
2022/04/13 08:00:34;;;;;;;20.95;10.00;;;15.20;99.90;;;;;;5075106;28;20082;-72
2022/04/13 08:03:04;;;;;;;23.52;11.43;;;15.20;99.90;;;;;;5036243;28;20338;-73
2022/04/13 08:05:32;;;;;;;19.33;11.55;;;15.20;99.90;;;;;;5042528;28;20045;-73
2022/04/13 08:07:58;;;;;;;21.50;11.68;;;15.20;99.90;;;;;;5038290;28;20107;-72
2022/04/13 08:10:24;;;;;;;23.65;11.50;;;15.20;99.90;;;;;;5036877;28;20102;-72
2022/04/13 08:12:50;;;;;;;29.35;12.73;;;15.20;99.90;;;;;;5034167;28;20045;-72
2022/04/13 08:15:16;;;;;;;25.80;11.73;;;15.30;99.90;;;;;;5083770;28;20040;-72
2022/04/13 08:17:41;;;;;;;20.40;10.55;;;15.30;99.90;;;;;;5029795;28;20036;-73
2022/04/13 08:20:09;;;;;;;23.23;12.32;;;15.30;99.90;;;;;;5050099;28;20036;-74
2022/04/13 08:22:35;;;;;;;20.92;11.80;;;15.30;99.90;;;;;;5032908;28;20041;-73
2022/04/13 08:25:01;;;;;;;20.30;10.95;;;15.40;99.90;;;;;;5052165;28;20117;-74
2022/04/13 08:27:29;;;;;;;25.17;11.23;;;15.40;99.90;;;;;;5033489;28;20052;-74
2022/04/13 08:29:55;;;;;;;22.33;12.63;;;15.40;99.90;;;;;;5061643;28;20063;-74
2022/04/13 08:32:22;;;;;;;19.63;11.05;;;15.50;99.90;;;;;;5056705;28;20542;-74
2022/04/13 08:34:51;;;;;;;21.42;11.82;;;15.60;99.90;;;;;;5055805;28;20045;-74
2022/04/13 08:37:21;;;;;;;22.33;12.20;;;15.70;99.90;;;;;;5053470;28;20076;-75
2022/04/13 08:39:47;;;;;;;21.77;11.32;;;15.80;99.90;;;;;;5048293;28;20052;-74
2022/04/13 08:42:18;;;;;;;19.13;11.10;;;16.10;99.90;;;;;;5033256;28;20045;-75
2022/04/13 08:44:47;;;;;;;20.67;11.40;;;16.10;99.90;;;;;;5052462;28;20081;-74
2022/04/13 08:47:21;;;;;;;21.73;11.63;;;16.20;99.90;;;;;;5052205;28;20049;-74
2022/04/13 08:49:51;;;;;;;17.45;10.60;;;16.30;99.90;;;;;;5051766;28;20032;-73
2022/04/13 08:52:31;;;;;;;19.98;10.20;;;16.40;99.90;;;;;;5042686;28;20139;-73
2022/04/13 08:55:03;;;;;;;20.30;10.20;;;16.50;99.90;;;;;;5040709;28;20064;-73
2022/04/13 08:57:30;;;;;;;15.65;8.98;;;16.40;99.90;;;;;;5064700;28;20349;-72
2022/04/13 09:00:09;;;;;;;19.20;9.27;;;16.50;99.90;;;;;;5039247;28;20056;-75
2022/04/13 09:03:04;;;;;;;19.40;9.93;;;16.60;99.90;;;;;;5050472;28;20058;-73
2022/04/13 09:05:33;;;;;;;19.23;9.35;;;16.60;99.90;;;;;;5061918;28;20040;-73
2022/04/13 09:08:19;;;;;;;18.13;8.90;;;16.60;99.90;;;;;;5041454;28;20054;-75
2022/04/13 09:10:47;;;;;;;16.13;9.02;;;16.70;99.90;;;;;;5051776;28;20112;-76
2022/04/13 09:13:13;;;;;;;12.02;8.15;;;16.70;99.90;;;;;;5038883;28;20055;-73
2022/04/13 09:15:41;;;;;;;14.05;7.90;;;16.70;99.90;;;;;;5031707;28;20482;-74
2022/04/13 09:18:08;;;;;;;17.15;7.97;;;16.70;99.90;;;;;;5053400;28;20060;-74
2022/04/13 09:20:34;;;;;;;16.25;9.05;;;16.60;99.90;;;;;;5053155;28;20033;-74
2022/04/13 09:23:01;;;;;;;19.00;9.25;;;16.60;99.90;;;;;;5041543;28;20126;-74
2022/04/13 09:25:29;;;;;;;16.75;7.85;;;16.60;99.90;;;;;;5048748;28;20181;-74
2022/04/13 09:27:57;;;;;;;13.38;8.07;;;16.60;99.90;;;;;;5056823;28;20040;-74
2022/04/13 09:30:26;;;;;;;15.35;7.13;;;16.70;99.90;;;;;;5057183;28;20130;-74
2022/04/13 09:32:52;;;;;;;11.32;6.82;;;16.80;99.90;;;;;;5048850;28;20639;-74
2022/04/13 09:35:24;;;;;;;16.42;8.32;;;16.80;99.90;;;;;;5041792;28;20041;-74
2022/04/13 09:37:49;;;;;;;21.65;7.22;;;16.90;99.90;;;;;;5045446;28;20052;-74
2022/04/13 09:40:31;;;;;;;15.02;7.25;;;17.00;99.90;;;;;;5069494;28;20040;-73
2022/04/13 09:43:08;;;;;;;17.80;7.00;;;17.10;99.90;;;;;;5052493;28;20590;-73
2022/04/13 09:45:35;;;;;;;14.32;6.43;;;17.10;99.90;;;;;;5043736;28;20079;-76
2022/04/13 09:48:04;;;;;;;10.63;5.97;;;17.20;99.90;;;;;;5049358;28;20044;-72
2022/04/13 09:50:30;;;;;;;12.55;5.55;;;17.30;99.90;;;;;;5037222;28;20047;-72
2022/04/13 09:52:57;;;;;;;14.68;6.30;;;17.50;99.90;;;;;;5063049;28;20127;-79
2022/04/13 09:55:23;;;;;;;12.50;5.65;;;17.50;99.90;;;;;;5064046;28;20139;-72
2022/04/13 09:57:49;;;;;;;12.48;5.50;;;17.50;99.90;;;;;;5034207;28;20139;-73
2022/04/13 10:00:15;;;;;;;14.32;5.57;;;17.50;99.90;;;;;;5042380;28;20041;-76
2022/04/13 10:02:50;;;;;;;13.90;5.45;;;17.60;99.90;;;;;;5053914;28;20071;-73
2022/04/13 10:05:16;;;;;;;11.10;5.15;;;17.60;99.90;;;;;;5058709;28;20095;-73
2022/04/13 10:07:43;;;;;;;11.93;5.03;;;17.60;99.90;;;;;;5056371;28;20075;-73
2022/04/13 10:10:23;;;;;;;9.23;5.20;;;17.70;99.90;;;;;;5046301;28;20150;-73
2022/04/13 10:12:50;;;;;;;11.77;5.03;;;17.80;99.90;;;;;;5066702;28;20636;-73
2022/04/13 10:15:16;;;;;;;10.55;5.00;;;17.80;99.90;;;;;;5047660;28;20044;-73
2022/04/13 10:17:41;;;;;;;10.75;5.10;;;17.90;99.90;;;;;;5051626;28;20049;-73
2022/04/13 10:20:07;;;;;;;13.82;4.88;;;18.00;99.90;;;;;;5035098;28;20044;-73
2022/04/13 10:22:33;;;;;;;10.07;4.68;;;18.00;99.90;;;;;;5036719;28;20118;-73
2022/04/13 10:25:20;;;;;;;10.35;4.65;;;18.00;99.90;;;;;;5070128;28;20056;-73
2022/04/13 10:28:20;;;;;;;14.35;4.97;;;18.10;99.90;;;;;;5041560;28;20049;-73
2022/04/13 10:30:45;;;;;;;13.57;4.55;;;18.20;99.90;;;;;;5051873;28;20082;-74
2022/04/13 10:33:13;;;;;;;8.82;4.15;;;18.40;99.90;;;;;;5038671;28;20045;-73
2022/04/13 10:35:42;;;;;;;12.18;4.57;;;18.40;99.90;;;;;;5085330;28;20471;-73
2022/04/13 10:38:08;;;;;;;7.45;3.88;;;18.50;99.90;;;;;;5055263;28;20136;-72
2022/04/13 10:40:36;;;;;;;10.77;3.83;;;18.50;99.90;;;;;;5038804;28;20040;-72
2022/04/13 10:43:04;;;;;;;10.63;4.32;;;18.70;99.90;;;;;;5059914;28;20429;-72
2022/04/13 10:45:33;;;;;;;8.80;3.78;;;18.60;99.90;;;;;;5045088;28;20537;-73
2022/04/13 10:48:04;;;;;;;9.18;3.80;;;18.70;99.90;;;;;;5061358;28;20064;-73
2022/04/13 10:50:36;;;;;;;9.57;4.53;;;18.80;99.90;;;;;;5061353;28;20051;-72
2022/04/13 10:53:17;;;;;;;8.38;4.15;;;18.90;99.90;;;;;;5038306;28;20380;-72
2022/04/13 10:55:45;;;;;;;9.73;4.13;;;19.00;99.90;;;;;;5053034;28;20037;-72
2022/04/13 10:58:24;;;;;;;8.00;3.67;;;18.90;99.90;;;;;;5049455;28;20044;-73
2022/04/13 11:00:57;;;;;;;6.90;3.17;;;19.00;99.90;;;;;;5055900;28;20098;-73
2022/04/13 11:03:25;;;;;;;9.30;3.30;;;19.10;99.90;;;;;;5032923;28;20045;-73
2022/04/13 11:05:53;;;;;;;5.30;2.25;;;19.20;99.90;;;;;;5035320;28;20055;-73
2022/04/13 11:08:44;;;;;;;9.43;3.72;;;19.30;99.50;;;;;;5037822;28;20064;-73
2022/04/13 11:11:19;;;;;;;8.40;4.40;;;19.50;98.60;;;;;;5010690;28;20168;-73
2022/04/13 11:13:47;;;;;;;10.48;3.92;;;19.50;98.20;;;;;;5050123;28;20041;-73
2022/04/13 11:16:15;;;;;;;12.18;3.97;;;19.70;98.10;;;;;;5064733;28;20037;-73
2022/04/13 11:18:41;;;;;;;8.50;3.90;;;19.70;97.20;;;;;;5052046;28;20087;-72
2022/04/13 11:21:08;;;;;;;6.53;3.55;;;19.70;97.50;;;;;;5045407;28;20064;-72
2022/04/13 11:23:47;;;;;;;6.80;3.38;;;19.70;97.60;;;;;;5060653;28;20516;-72
2022/04/13 11:26:14;;;;;;;8.13;3.30;;;19.70;96.60;;;;;;5062283;28;20588;-73
2022/04/13 11:28:42;;;;;;;9.15;3.35;;;19.70;96.30;;;;;;5063712;28;20040;-72
2022/04/13 11:31:12;;;;;;;8.82;3.17;;;19.70;96.00;;;;;;5068235;28;20047;-72
2022/04/13 11:33:55;;;;;;;7.27;3.03;;;19.70;96.90;;;;;;5063263;28;20405;-72
2022/04/13 11:36:24;;;;;;;9.13;3.83;;;19.80;97.00;;;;;;5061693;28;20089;-72
2022/04/13 11:38:51;;;;;;;5.78;2.85;;;19.80;96.70;;;;;;5070045;28;20396;-71
2022/04/13 11:41:17;;;;;;;7.18;3.42;;;19.90;95.90;;;;;;5050650;28;20417;-72
2022/04/13 11:43:44;;;;;;;11.10;3.75;;;19.90;95.70;;;;;;5048961;28;20553;-72
2022/04/13 11:46:37;;;;;;;11.68;4.43;;;19.80;95.30;;;;;;5040490;28;20045;-74
2022/04/13 11:49:07;;;;;;;6.43;3.22;;;19.70;95.90;;;;;;5043543;28;20068;-73
2022/04/13 11:51:34;;;;;;;7.30;3.38;;;19.50;96.10;;;;;;5036547;28;20060;-72
2022/04/13 11:54:12;;;;;;;12.55;4.60;;;19.40;96.30;;;;;;5047044;28;20044;-72
2022/04/13 11:56:52;;;;;;;9.77;3.95;;;19.20;95.40;;;;;;5035226;28;20072;-71
2022/04/13 11:59:47;;;;;;;8.10;3.70;;;19.00;96.60;;;;;;5046772;28;20138;-75
2022/04/13 12:02:15;;;;;;;10.35;4.05;;;18.90;97.10;;;;;;5039405;28;20049;-77
2022/04/13 12:04:44;;;;;;;11.00;3.88;;;18.80;97.90;;;;;;5055366;28;20136;-78
2022/04/13 12:07:11;;;;;;;12.88;3.97;;;18.80;98.00;;;;;;5054748;28;20041;-78
2022/04/13 12:09:37;;;;;;;8.80;3.20;;;18.70;98.00;;;;;;5046964;28;20052;-78
2022/04/13 12:12:03;;;;;;;10.60;3.58;;;18.60;97.80;;;;;;5033868;28;20049;-79
2022/04/13 12:14:33;;;;;;;10.07;3.28;;;18.50;97.90;;;;;;5043684;28;20052;-73
2022/04/13 12:17:02;;;;;;;14.95;4.00;;;18.40;98.00;;;;;;5044111;28;20568;-73
2022/04/13 12:19:38;;;;;;;10.32;2.63;;;18.30;98.10;;;;;;5047388;28;20056;-74
2022/04/13 12:22:17;;;;;;;10.60;2.20;;;18.30;97.60;;;;;;5050582;28;20072;-73
2022/04/13 12:25:02;;;;;;;8.55;2.28;;;18.20;97.80;;;;;;5038321;28;20098;-73
2022/04/13 12:27:28;;;;;;;8.20;2.78;;;18.20;97.50;;;;;;5043356;28;20048;-74
2022/04/13 12:30:16;;;;;;;7.13;2.42;;;18.20;97.60;;;;;;5066856;28;20459;-72
2022/04/13 12:32:48;;;;;;;7.13;2.42;;;18.20;97.70;;;;;;5049891;28;20107;-72
2022/04/13 12:35:15;;;;;;;11.35;3.38;;;18.20;97.90;;;;;;5041096;28;20048;-72
2022/04/13 12:37:54;;;;;;;8.95;3.10;;;18.20;98.20;;;;;;5028979;28;20533;-72